sensor_id;sensor_type;location;lat;lon;timestamp;pressure;altitude;pressure_sealevel;temperature;humidity
60337;BME280;46978;50.288;28.624;2022-09-24T00:00:47;98781.87;;;6.39;100.00
60337;BME280;46978;50.288;28.624;2022-09-24T00:01:49;98777.60;;;6.40;100.00
60337;BME280;46978;50.288;28.624;2022-09-24T00:02:51;98780.18;;;6.40;100.00
60337;BME280;46978;50.288;28.624;2022-09-24T00:03:55;98770.71;;;6.40;100.00
60337;BME280;46978;50.288;28.624;2022-09-24T00:04:57;98775.01;;;6.41;100.00
60337;BME280;46978;50.288;28.624;2022-09-24T00:06:01;98774.13;;;6.41;100.00
60337;BME280;46978;50.288;28.624;2022-09-24T00:07:03;98775.85;;;6.42;100.00
60337;BME280;46978;50.288;28.624;2022-09-24T00:08:08;98777.59;;;6.41;100.00
60337;BME280;46978;50.288;28.624;2022-09-24T00:09:16;98765.55;;;6.42;100.00
60337;BME280;46978;50.288;28.624;2022-09-24T00:10:18;98776.71;;;6.41;100.00
60337;BME280;46978;50.288;28.624;2022-09-24T00:11:22;98774.13;;;6.41;100.00
60337;BME280;46978;50.288;28.624;2022-09-24T00:12:24;98772.43;;;6.41;100.00
60337;BME280;46978;50.288;28.624;2022-09-24T00:13:26;98776.70;;;6.42;100.00
60337;BME280;46978;50.288;28.624;2022-09-24T00:14:27;98771.54;;;6.42;100.00
60337;BME280;46978;50.288;28.624;2022-09-24T00:15:29;98771.52;;;6.44;100.00
60337;BME280;46978;50.288;28.624;2022-09-24T00:16:31;98768.95;;;6.44;100.00
60337;BME280;46978;50.288;28.624;2022-09-24T00:17:33;98769.82;;;6.44;100.00
60337;BME280;46978;50.288;28.624;2022-09-24T00:18:35;98771.51;;;6.45;100.00
60337;BME280;46978;50.288;28.624;2022-09-24T00:19:37;98773.22;;;6.46;100.00
60337;BME280;46978;50.288;28.624;2022-09-24T00:20:40;98775.80;;;6.46;100.00
60337;BME280;46978;50.288;28.624;2022-09-24T00:21:42;98770.62;;;6.48;100.00
60337;BME280;46978;50.288;28.624;2022-09-24T00:22:44;98775.80;;;6.46;100.00
60337;BME280;46978;50.288;28.624;2022-09-24T00:23:51;98771.48;;;6.47;100.00
60337;BME280;46978;50.288;28.624;2022-09-24T00:24:53;98765.49;;;6.46;100.00
60337;BME280;46978;50.288;28.624;2022-09-24T00:25:54;98768.91;;;6.47;100.00
60337;BME280;46978;50.288;28.624;2022-09-24T00:26:56;98767.23;;;6.46;100.00
60337;BME280;46978;50.288;28.624;2022-09-24T00:27:57;98763.76;;;6.47;100.00
60337;BME280;46978;50.288;28.624;2022-09-24T00:28:59;98763.76;;;6.47;100.00
60337;BME280;46978;50.288;28.624;2022-09-24T00:30:01;98762.05;;;6.48;100.00
60337;BME280;46978;50.288;28.624;2022-09-24T00:31:07;98758.63;;;6.45;100.00
60337;BME280;46978;50.288;28.624;2022-09-24T00:32:09;98765.48;;;6.48;100.00
60337;BME280;46978;50.288;28.624;2022-09-24T00:33:11;98768.06;;;6.46;100.00
60337;BME280;46978;50.288;28.624;2022-09-24T00:34:13;98763.77;;;6.45;100.00
60337;BME280;46978;50.288;28.624;2022-09-24T00:35:15;98774.95;;;6.46;100.00
60337;BME280;46978;50.288;28.624;2022-09-24T00:36:20;98771.51;;;6.45;100.00
60337;BME280;46978;50.288;28.624;2022-09-24T00:37:22;98770.68;;;6.43;100.00
60337;BME280;46978;50.288;28.624;2022-09-24T00:38:24;98772.41;;;6.43;100.00
60337;BME280;46978;50.288;28.624;2022-09-24T00:39:26;98768.98;;;6.41;100.00
60337;BME280;46978;50.288;28.624;2022-09-24T00:40:29;98761.25;;;6.41;100.00
60337;BME280;46978;50.288;28.624;2022-09-24T00:41:34;98763.83;;;6.41;100.00
60337;BME280;46978;50.288;28.624;2022-09-24T00:42:36;98766.42;;;6.39;100.00
60337;BME280;46978;50.288;28.624;2022-09-24T00:43:38;98762.14;;;6.40;100.00
60337;BME280;46978;50.288;28.624;2022-09-24T00:45:48;98763.84;;;6.39;100.00
60337;BME280;46978;50.288;28.624;2022-09-24T00:46:51;98763.83;;;6.41;100.00
60337;BME280;46978;50.288;28.624;2022-09-24T00:47:53;98762.14;;;6.40;100.00
60337;BME280;46978;50.288;28.624;2022-09-24T00:48:57;98758.67;;;6.41;100.00
60337;BME280;46978;50.288;28.624;2022-09-24T00:51:07;98765.55;;;6.42;100.00
60337;BME280;46978;50.288;28.624;2022-09-24T00:52:09;98761.23;;;6.42;100.00
60337;BME280;46978;50.288;28.624;2022-09-24T00:53:14;98764.69;;;6.43;100.00
60337;BME280;46978;50.288;28.624;2022-09-24T00:54:18;98762.95;;;6.43;100.00
60337;BME280;46978;50.288;28.624;2022-09-24T00:55:22;98762.95;;;6.43;100.00
60337;BME280;46978;50.288;28.624;2022-09-24T00:56:25;98769.80;;;6.46;100.00
60337;BME280;46978;50.288;28.624;2022-09-24T00:57:30;98765.51;;;6.45;100.00
60337;BME280;46978;50.288;28.624;2022-09-24T00:58:32;98759.53;;;6.43;100.00
60337;BME280;46978;50.288;28.624;2022-09-24T00:59:35;98769.84;;;6.43;100.00
60337;BME280;46978;50.288;28.624;2022-09-24T01:00:38;98769.84;;;6.43;100.00
60337;BME280;46978;50.288;28.624;2022-09-24T01:01:40;98769.85;;;6.41;100.00
60337;BME280;46978;50.288;28.624;2022-09-24T01:02:44;98763.83;;;6.41;100.00
60337;BME280;46978;50.288;28.624;2022-09-24T01:03:48;98772.43;;;6.41;100.00
60337;BME280;46978;50.288;28.624;2022-09-24T01:04:51;98769.85;;;6.41;100.00
60337;BME280;46978;50.288;28.624;2022-09-24T01:05:52;98770.70;;;6.42;100.00
60337;BME280;46978;50.288;28.624;2022-09-24T01:06:55;98765.55;;;6.42;100.00
60337;BME280;46978;50.288;28.624;2022-09-24T01:07:57;98773.27;;;6.42;100.00
60337;BME280;46978;50.288;28.624;2022-09-24T01:09:00;98762.11;;;6.43;100.00
60337;BME280;46978;50.288;28.624;2022-09-24T01:10:02;98769.84;;;6.43;100.00
60337;BME280;46978;50.288;28.624;2022-09-24T01:16:24;98762.98;;;6.40;100.00
60337;BME280;46978;50.288;28.624;2022-09-24T01:17:42;98766.42;;;6.39;100.00
60337;BME280;46978;50.288;28.624;2022-09-24T01:19:16;98772.45;;;6.40;100.00
60337;BME280;46978;50.288;28.624;2022-09-24T01:21:43;98765.55;;;6.42;100.00
60337;BME280;46978;50.288;28.624;2022-09-24T01:24:27;98765.56;;;6.40;100.00
60337;BME280;46978;50.288;28.624;2022-09-24T01:30:55;98771.63;;;6.35;100.00
60337;BME280;46978;50.288;28.624;2022-09-24T01:32:13;98767.36;;;6.34;100.00
60337;BME280;46978;50.288;28.624;2022-09-24T01:33:17;98771.64;;;6.33;100.00
60337;BME280;46978;50.288;28.624;2022-09-24T01:34:23;98767.36;;;6.34;100.00
60337;BME280;46978;50.288;28.624;2022-09-24T01:35:30;98768.20;;;6.34;100.00
60337;BME280;46978;50.288;28.624;2022-09-24T01:36:35;98764.78;;;6.34;100.00
60337;BME280;46978;50.288;28.624;2022-09-24T01:37:41;98765.64;;;6.33;100.00
60337;BME280;46978;50.288;28.624;2022-09-24T01:38:45;98767.36;;;6.34;100.00
60337;BME280;46978;50.288;28.624;2022-09-24T01:39:48;98769.95;;;6.32;100.00
60337;BME280;46978;50.288;28.624;2022-09-24T01:40:54;98769.95;;;6.32;100.00
60337;BME280;46978;50.288;28.624;2022-09-24T01:41:57;98765.66;;;6.31;100.00
60337;BME280;46978;50.288;28.624;2022-09-24T01:43:01;98767.39;;;6.31;100.00
60337;BME280;46978;50.288;28.624;2022-09-24T01:44:05;98769.97;;;6.31;100.00
60337;BME280;46978;50.288;28.624;2022-09-24T01:45:08;98763.94;;;6.30;100.00
60337;BME280;46978;50.288;28.624;2022-09-24T01:46:11;98765.67;;;6.30;100.00
60337;BME280;46978;50.288;28.624;2022-09-24T01:47:21;98762.23;;;6.31;100.00
60337;BME280;46978;50.288;28.624;2022-09-24T01:48:19;98767.39;;;6.31;100.00
60337;BME280;46978;50.288;28.624;2022-09-24T01:49:21;98764.81;;;6.31;100.00
60337;BME280;46978;50.288;28.624;2022-09-24T01:50:23;98764.81;;;6.31;100.00
60337;BME280;46978;50.288;28.624;2022-09-24T01:51:39;98768.25;;;6.30;100.00
60337;BME280;46978;50.288;28.624;2022-09-24T01:53:05;98757.96;;;6.28;100.00
60337;BME280;46978;50.288;28.624;2022-09-24T01:54:22;98767.42;;;6.27;100.00
60337;BME280;46978;50.288;28.624;2022-09-24T01:55:29;98768.28;;;6.26;100.00
60337;BME280;46978;50.288;28.624;2022-09-24T01:56:33;98765.70;;;6.26;100.00
60337;BME280;46978;50.288;28.624;2022-09-24T01:57:42;98765.73;;;6.23;100.00
60337;BME280;46978;50.288;28.624;2022-09-24T01:58:50;98768.31;;;6.23;100.00
60337;BME280;46978;50.288;28.624;2022-09-24T02:00:08;98769.17;;;6.22;100.00
60337;BME280;46978;50.288;28.624;2022-09-24T02:01:13;98762.34;;;6.21;100.00
60337;BME280;46978;50.288;28.624;2022-09-24T02:03:38;98756.30;;;6.21;100.00
60337;BME280;46978;50.288;28.624;2022-09-24T02:04:49;98757.19;;;6.21;100.00
60337;BME280;46978;50.288;28.624;2022-09-24T02:06:05;98756.30;;;6.21;100.00
60337;BME280;46978;50.288;28.624;2022-09-24T02:07:13;98769.17;;;6.22;100.00
60337;BME280;46978;50.288;28.624;2022-09-24T02:08:19;98769.16;;;6.24;100.00
60337;BME280;46978;50.288;28.624;2022-09-24T02:09:40;98773.44;;;6.26;100.00
60337;BME280;46978;50.288;28.624;2022-09-24T02:11:03;98764.84;;;6.27;100.00
60337;BME280;46978;50.288;28.624;2022-09-24T02:11:44;98776.84;;;6.28;100.00
60337;BME280;46978;50.288;28.624;2022-09-24T02:12:50;98765.69;;;6.28;100.00
60337;BME280;46978;50.288;28.624;2022-09-24T02:14:06;98770.84;;;6.28;100.00
60337;BME280;46978;50.288;28.624;2022-09-24T02:15:12;98775.98;;;6.30;100.00
60337;BME280;46978;50.288;28.624;2022-09-24T02:16:17;98769.11;;;6.28;100.00
60337;BME280;46978;50.288;28.624;2022-09-24T02:17:21;98769.09;;;6.30;100.00
60337;BME280;46978;50.288;28.624;2022-09-24T02:18:27;98774.23;;;6.32;100.00
60337;BME280;46978;50.288;28.624;2022-09-24T02:19:31;98776.80;;;6.33;100.00
60337;BME280;46978;50.288;28.624;2022-09-24T02:20:37;98772.52;;;6.34;100.00
60337;BME280;46978;50.288;28.624;2022-09-24T02:21:42;98770.77;;;6.36;100.00
60337;BME280;46978;50.288;28.624;2022-09-24T02:22:45;98773.33;;;6.37;100.00
60337;BME280;46978;50.288;28.624;2022-09-24T02:23:50;98775.06;;;6.37;100.00
60337;BME280;46978;50.288;28.624;2022-09-24T02:24:59;98769.89;;;6.38;100.00
60337;BME280;46978;50.288;28.624;2022-09-24T02:26:03;98769.89;;;6.38;100.00
60337;BME280;46978;50.288;28.624;2022-09-24T02:27:05;98768.17;;;6.37;100.00
60337;BME280;46978;50.288;28.624;2022-09-24T02:28:06;98771.61;;;6.36;100.00
60337;BME280;46978;50.288;28.624;2022-09-24T02:29:08;98769.91;;;6.37;100.00
60337;BME280;46978;50.288;28.624;2022-09-24T02:30:11;98766.45;;;6.36;100.00
60337;BME280;46978;50.288;28.624;2022-09-24T02:31:17;98765.61;;;6.36;100.00
60337;BME280;46978;50.288;28.624;2022-09-24T02:32:18;98766.45;;;6.36;100.00
60337;BME280;46978;50.288;28.624;2022-09-24T02:33:22;98769.92;;;6.35;100.00
60337;BME280;46978;50.288;28.624;2022-09-24T02:34:35;98765.61;;;6.36;100.00
60337;BME280;46978;50.288;28.624;2022-09-24T02:35:37;98766.45;;;6.36;100.00
60337;BME280;46978;50.288;28.624;2022-09-24T02:36:39;98768.19;;;6.36;100.00
60337;BME280;46978;50.288;28.624;2022-09-24T02:37:42;98767.33;;;6.37;100.00
60337;BME280;46978;50.288;28.624;2022-09-24T02:38:44;98769.02;;;6.38;100.00
60337;BME280;46978;50.288;28.624;2022-09-24T02:39:46;98765.58;;;6.39;100.00
60337;BME280;46978;50.288;28.624;2022-09-24T02:40:48;98762.16;;;6.38;100.00
60337;BME280;46978;50.288;28.624;2022-09-24T02:41:51;98761.28;;;6.38;100.00
60337;BME280;46978;50.288;28.624;2022-09-24T02:42:54;98770.75;;;6.37;100.00
60337;BME280;46978;50.288;28.624;2022-09-24T02:43:56;98758.72;;;6.36;100.00
60337;BME280;46978;50.288;28.624;2022-09-24T02:44:57;98758.72;;;6.36;100.00
60337;BME280;46978;50.288;28.624;2022-09-24T02:45:59;98761.27;;;6.39;100.00
60337;BME280;46978;50.288;28.624;2022-09-24T02:47:02;98759.55;;;6.41;100.00
60337;BME280;46978;50.288;28.624;2022-09-24T02:48:04;98766.41;;;6.41;100.00
60337;BME280;46978;50.288;28.624;2022-09-24T02:49:05;98757.81;;;6.42;100.00
60337;BME280;46978;50.288;28.624;2022-09-24T02:50:08;98756.95;;;6.43;100.00
60337;BME280;46978;50.288;28.624;2022-09-24T02:51:10;98758.64;;;6.44;100.00
60337;BME280;46978;50.288;28.624;2022-09-24T02:52:11;98759.52;;;6.44;100.00
60337;BME280;46978;50.288;28.624;2022-09-24T02:53:13;98764.65;;;6.46;100.00
60337;BME280;46978;50.288;28.624;2022-09-24T02:54:15;98760.34;;;6.46;100.00
60337;BME280;46978;50.288;28.624;2022-09-24T02:55:17;98756.90;;;6.48;100.00
60337;BME280;46978;50.288;28.624;2022-09-24T02:56:19;98756.90;;;6.48;100.00
60337;BME280;46978;50.288;28.624;2022-09-24T02:57:20;98757.74;;;6.48;100.00
60337;BME280;46978;50.288;28.624;2022-09-24T02:58:22;98756.90;;;6.48;100.00
60337;BME280;46978;50.288;28.624;2022-09-24T02:59:24;98759.48;;;6.48;100.00
60337;BME280;46978;50.288;28.624;2022-09-24T03:00:26;98751.73;;;6.49;100.00
60337;BME280;46978;50.288;28.624;2022-09-24T03:01:28;98759.48;;;6.48;100.00
60337;BME280;46978;50.288;28.624;2022-09-24T03:02:30;98758.59;;;6.49;100.00
60337;BME280;46978;50.288;28.624;2022-09-24T03:03:32;98762.03;;;6.49;100.00
60337;BME280;46978;50.288;28.624;2022-09-24T03:04:34;98761.16;;;6.49;100.00
60337;BME280;46978;50.288;28.624;2022-09-24T03:05:35;98764.59;;;6.51;100.00
60337;BME280;46978;50.288;28.624;2022-09-24T03:06:37;98766.28;;;6.52;100.00
60337;BME280;46978;50.288;28.624;2022-09-24T03:07:39;98771.44;;;6.52;100.00
60337;BME280;46978;50.288;28.624;2022-09-24T03:08:41;98769.75;;;6.51;100.00
60337;BME280;46978;50.288;28.624;2022-09-24T03:09:43;98762.02;;;6.51;100.00
60337;BME280;46978;50.288;28.624;2022-09-24T03:10:45;98769.75;;;6.51;100.00
60337;BME280;46978;50.288;28.624;2022-09-24T03:11:46;98774.91;;;6.51;100.00
60337;BME280;46978;50.288;28.624;2022-09-24T03:12:48;98769.75;;;6.51;100.00
60337;BME280;46978;50.288;28.624;2022-09-24T03:13:50;98764.62;;;6.49;100.00
60337;BME280;46978;50.288;28.624;2022-09-24T03:14:52;98768.03;;;6.50;100.00
60337;BME280;46978;50.288;28.624;2022-09-24T03:15:53;98764.62;;;6.49;100.00
60337;BME280;46978;50.288;28.624;2022-09-24T03:16:55;98761.14;;;6.50;100.00
60337;BME280;46978;50.288;28.624;2022-09-24T03:17:57;98762.02;;;6.51;100.00
60337;BME280;46978;50.288;28.624;2022-09-24T03:18:58;98763.70;;;6.52;100.00
60337;BME280;46978;50.288;28.624;2022-09-24T03:20:01;98766.28;;;6.52;100.00
60337;BME280;46978;50.288;28.624;2022-09-24T03:21:07;98763.70;;;6.52;100.00
60337;BME280;46978;50.288;28.624;2022-09-24T03:22:10;98768.02;;;6.51;100.00
60337;BME280;46978;50.288;28.624;2022-09-24T03:23:11;98767.16;;;6.52;100.00
60337;BME280;46978;50.288;28.624;2022-09-24T03:24:13;98768.84;;;6.53;100.00
60337;BME280;46978;50.288;28.624;2022-09-24T03:25:15;98763.72;;;6.50;100.00
60337;BME280;46978;50.288;28.624;2022-09-24T03:26:18;98768.02;;;6.51;100.00
60337;BME280;46978;50.288;28.624;2022-09-24T03:27:20;98769.73;;;6.52;100.00
60337;BME280;46978;50.288;28.624;2022-09-24T03:28:22;98774.02;;;6.52;100.00
60337;BME280;46978;50.288;28.624;2022-09-24T03:29:24;98774.92;;;6.49;100.00
60337;BME280;46978;50.288;28.624;2022-09-24T03:30:26;98769.78;;;6.48;100.00
60337;BME280;46978;50.288;28.624;2022-09-24T03:31:27;98775.78;;;6.48;100.00
60337;BME280;46978;50.288;28.624;2022-09-24T03:32:29;98769.78;;;6.48;100.00
60337;BME280;46978;50.288;28.624;2022-09-24T03:33:36;98775.78;;;6.48;100.00
60337;BME280;46978;50.288;28.624;2022-09-24T03:34:38;98774.06;;;6.47;100.00
60337;BME280;46978;50.288;28.624;2022-09-24T03:35:40;98775.78;;;6.48;100.00
60337;BME280;46978;50.288;28.624;2022-09-24T03:36:41;98772.36;;;6.48;100.00
60337;BME280;46978;50.288;28.624;2022-09-24T03:37:43;98770.62;;;6.48;100.00
60337;BME280;46978;50.288;28.624;2022-09-24T03:38:47;98781.78;;;6.49;100.00
60337;BME280;46978;50.288;28.624;2022-09-24T03:39:50;98774.92;;;6.49;100.00
60337;BME280;46978;50.288;28.624;2022-09-24T03:40:51;98772.34;;;6.49;100.00
60337;BME280;46978;50.288;28.624;2022-09-24T03:41:53;98772.34;;;6.49;100.00
60337;BME280;46978;50.288;28.624;2022-09-24T03:42:55;98775.78;;;6.48;100.00
60337;BME280;46978;50.288;28.624;2022-09-24T03:43:57;98777.52;;;6.48;100.00
60337;BME280;46978;50.288;28.624;2022-09-24T03:44:58;98777.52;;;6.48;100.00
60337;BME280;46978;50.288;28.624;2022-09-24T03:46:00;98778.38;;;6.46;100.00
60337;BME280;46978;50.288;28.624;2022-09-24T03:47:02;98777.53;;;6.46;100.00
60337;BME280;46978;50.288;28.624;2022-09-24T03:48:04;98787.84;;;6.46;100.00
60337;BME280;46978;50.288;28.624;2022-09-24T03:49:05;98786.97;;;6.45;100.00
60337;BME280;46978;50.288;28.624;2022-09-24T03:50:07;98784.41;;;6.44;100.00
60337;BME280;46978;50.288;28.624;2022-09-24T03:51:12;98789.56;;;6.44;100.00
60337;BME280;46978;50.288;28.624;2022-09-24T03:52:14;98788.70;;;6.45;100.00
60337;BME280;46978;50.288;28.624;2022-09-24T03:53:16;98783.55;;;6.45;100.00
60337;BME280;46978;50.288;28.624;2022-09-24T03:54:18;98786.12;;;6.45;100.00
60337;BME280;46978;50.288;28.624;2022-09-24T03:55:20;98780.95;;;6.46;100.00
60337;BME280;46978;50.288;28.624;2022-09-24T03:56:22;98785.25;;;6.48;100.00
60337;BME280;46978;50.288;28.624;2022-09-24T03:57:24;98780.94;;;6.48;100.00
60337;BME280;46978;50.288;28.624;2022-09-24T03:58:25;98780.09;;;6.48;100.00
60337;BME280;46978;50.288;28.624;2022-09-24T03:59:27;98778.36;;;6.48;100.00
60337;BME280;46978;50.288;28.624;2022-09-24T04:00:29;98784.36;;;6.49;100.00
60337;BME280;46978;50.288;28.624;2022-09-24T04:01:31;98783.52;;;6.48;100.00
60337;BME280;46978;50.288;28.624;2022-09-24T04:02:32;98782.67;;;6.48;100.00
60337;BME280;46978;50.288;28.624;2022-09-24T04:03:34;98790.42;;;6.46;100.00
60337;BME280;46978;50.288;28.624;2022-09-24T04:04:37;98788.72;;;6.43;100.00
60337;BME280;46978;50.288;28.624;2022-09-24T04:05:39;98786.14;;;6.43;100.00
60337;BME280;46978;50.288;28.624;2022-09-24T04:06:40;98790.42;;;6.46;100.00
60337;BME280;46978;50.288;28.624;2022-09-24T04:07:43;98788.69;;;6.46;100.00
60337;BME280;46978;50.288;28.624;2022-09-24T04:08:45;98790.39;;;6.49;100.00
60337;BME280;46978;50.288;28.624;2022-09-24T04:09:46;98786.09;;;6.48;100.00
60337;BME280;46978;50.288;28.624;2022-09-24T04:10:49;98786.09;;;6.48;100.00
60337;BME280;46978;50.288;28.624;2022-09-24T04:11:51;98787.83;;;6.48;100.00
60337;BME280;46978;50.288;28.624;2022-09-24T04:12:53;98788.69;;;6.46;100.00
60337;BME280;46978;50.288;28.624;2022-09-24T04:13:55;98786.97;;;6.45;100.00
60337;BME280;46978;50.288;28.624;2022-09-24T04:14:56;98789.55;;;6.45;100.00
60337;BME280;46978;50.288;28.624;2022-09-24T04:16:02;98786.97;;;6.45;100.00
60337;BME280;46978;50.288;28.624;2022-09-24T04:17:04;98784.39;;;6.45;100.00
60337;BME280;46978;50.288;28.624;2022-09-24T04:18:06;98789.53;;;6.47;100.00
60337;BME280;46978;50.288;28.624;2022-09-24T04:19:08;98786.09;;;6.48;100.00
60337;BME280;46978;50.288;28.624;2022-09-24T04:20:10;98786.09;;;6.48;100.00
60337;BME280;46978;50.288;28.624;2022-09-24T04:21:12;98785.25;;;6.48;100.00
60337;BME280;46978;50.288;28.624;2022-09-24T04:22:14;98793.84;;;6.46;100.00
60337;BME280;46978;50.288;28.624;2022-09-24T04:23:15;98793.84;;;6.46;100.00
60337;BME280;46978;50.288;28.624;2022-09-24T04:24:17;98797.28;;;6.45;100.00
60337;BME280;46978;50.288;28.624;2022-09-24T04:25:20;98803.34;;;6.43;100.00
60337;BME280;46978;50.288;28.624;2022-09-24T04:26:22;98790.45;;;6.43;100.00
60337;BME280;46978;50.288;28.624;2022-09-24T04:27:23;98787.88;;;6.43;100.00
60337;BME280;46978;50.288;28.624;2022-09-24T04:28:25;98790.45;;;6.43;100.00
60337;BME280;46978;50.288;28.624;2022-09-24T04:29:27;98792.13;;;6.45;100.00
60337;BME280;46978;50.288;28.624;2022-09-24T04:30:30;98794.70;;;6.45;100.00
60337;BME280;46978;50.288;28.624;2022-09-24T04:31:32;98793.83;;;6.48;100.00
60337;BME280;46978;50.288;28.624;2022-09-24T04:32:33;98796.39;;;6.50;100.00
60337;BME280;46978;50.288;28.624;2022-09-24T04:33:35;98796.41;;;6.48;100.00
60337;BME280;46978;50.288;28.624;2022-09-24T04:34:37;98801.55;;;6.50;100.00
60337;BME280;46978;50.288;28.624;2022-09-24T04:35:39;98802.38;;;6.50;100.00
60337;BME280;46978;50.288;28.624;2022-09-24T04:36:41;98800.69;;;6.51;100.00
60337;BME280;46978;50.288;28.624;2022-09-24T04:37:42;98798.95;;;6.51;100.00
60337;BME280;46978;50.288;28.624;2022-09-24T04:38:44;98799.81;;;6.50;100.00
60337;BME280;46978;50.288;28.624;2022-09-24T04:39:46;98792.95;;;6.51;100.00
60337;BME280;46978;50.288;28.624;2022-09-24T04:40:48;98797.21;;;6.52;100.00
60337;BME280;46978;50.288;28.624;2022-09-24T04:41:50;98798.91;;;6.54;100.00
60337;BME280;46978;50.288;28.624;2022-09-24T04:42:52;98799.73;;;6.56;100.00
60337;BME280;46978;50.288;28.624;2022-09-24T04:43:55;98798.02;;;6.58;100.00
60337;BME280;46978;50.288;28.624;2022-09-24T04:44:57;98796.27;;;6.60;100.00
60337;BME280;46978;50.288;28.624;2022-09-24T04:45:59;98797.95;;;6.61;100.00
60337;BME280;46978;50.288;28.624;2022-09-24T04:47:01;98800.52;;;6.63;100.00
60337;BME280;46978;50.288;28.624;2022-09-24T04:48:02;98800.50;;;6.64;100.00
60337;BME280;46978;50.288;28.624;2022-09-24T04:49:04;98804.81;;;6.64;100.00
60337;BME280;46978;50.288;28.624;2022-09-24T04:50:09;98801.39;;;6.63;100.00
60337;BME280;46978;50.288;28.624;2022-09-24T04:51:10;98804.81;;;6.64;100.00
60337;BME280;46978;50.288;28.624;2022-09-24T04:52:12;98802.25;;;6.62;100.00
60337;BME280;46978;50.288;28.624;2022-09-24T04:53:14;98807.39;;;6.64;100.00
60337;BME280;46978;50.288;28.624;2022-09-24T04:54:16;98812.53;;;6.66;100.00
60337;BME280;46978;50.288;28.624;2022-09-24T04:55:17;98807.38;;;6.66;100.00
60337;BME280;46978;50.288;28.624;2022-09-24T04:56:19;98803.94;;;6.67;100.00
60337;BME280;46978;50.288;28.624;2022-09-24T04:57:21;98804.76;;;6.69;100.00
60337;BME280;46978;50.288;28.624;2022-09-24T04:58:22;98810.76;;;6.69;100.00
60337;BME280;46978;50.288;28.624;2022-09-24T04:59:24;98810.74;;;6.71;100.00
60337;BME280;46978;50.288;28.624;2022-09-24T05:00:26;98810.73;;;6.72;100.00
60337;BME280;46978;50.288;28.624;2022-09-24T05:01:27;98807.27;;;6.75;100.00
60337;BME280;46978;50.288;28.624;2022-09-24T05:02:29;98801.25;;;6.76;100.00
60337;BME280;46978;50.288;28.624;2022-09-24T05:03:31;98808.95;;;6.79;100.00
60337;BME280;46978;50.288;28.624;2022-09-24T05:04:36;98807.23;;;6.78;100.00
60337;BME280;46978;50.288;28.624;2022-09-24T05:05:38;98805.50;;;6.78;100.00
60337;BME280;46978;50.288;28.624;2022-09-24T05:06:40;98804.66;;;6.78;100.00
60337;BME280;46978;50.288;28.624;2022-09-24T05:07:41;98814.13;;;6.77;100.00
60337;BME280;46978;50.288;28.624;2022-09-24T05:08:43;98810.66;;;6.78;100.00
60337;BME280;46978;50.288;28.624;2022-09-24T05:09:45;98811.53;;;6.79;100.00
60337;BME280;46978;50.288;28.624;2022-09-24T05:10:46;98798.58;;;6.84;100.00
60337;BME280;46978;50.288;28.624;2022-09-24T05:11:48;98809.73;;;6.84;100.00
60337;BME280;46978;50.288;28.624;2022-09-24T05:12:50;98813.13;;;6.88;100.00
60337;BME280;46978;50.288;28.624;2022-09-24T05:13:52;98803.66;;;6.90;100.00
60337;BME280;46978;50.288;28.624;2022-09-24T05:14:53;98807.95;;;6.89;100.00
60337;BME280;46978;50.288;28.624;2022-09-24T05:15:55;98808.83;;;6.90;100.00
60337;BME280;46978;50.288;28.624;2022-09-24T05:16:57;98812.23;;;6.92;100.00
60337;BME280;46978;50.288;28.624;2022-09-24T05:17:58;98810.48;;;6.92;100.00
60337;BME280;46978;50.288;28.624;2022-09-24T05:19:00;98820.80;;;6.92;100.00
60337;BME280;46978;50.288;28.624;2022-09-24T05:20:02;98822.52;;;6.93;100.00
60337;BME280;46978;50.288;28.624;2022-09-24T05:21:04;98819.91;;;6.96;100.00
60337;BME280;46978;50.288;28.624;2022-09-24T05:22:06;98817.29;;;6.99;100.00
60337;BME280;46978;50.288;28.624;2022-09-24T05:23:07;98818.11;;;7.02;100.00
60337;BME280;46978;50.288;28.624;2022-09-24T05:24:09;98822.38;;;7.06;100.00
60337;BME280;46978;50.288;28.624;2022-09-24T05:25:12;98819.77;;;7.07;100.00
60337;BME280;46978;50.288;28.624;2022-09-24T05:26:15;98818.00;;;7.11;100.00
60337;BME280;46978;50.288;28.624;2022-09-24T05:27:16;98825.70;;;7.14;100.00
60337;BME280;46978;50.288;28.624;2022-09-24T05:28:18;98822.26;;;7.15;100.00
60337;BME280;46978;50.288;28.624;2022-09-24T05:29:19;98822.23;;;7.16;100.00
60337;BME280;46978;50.288;28.624;2022-09-24T05:30:22;98826.49;;;7.21;100.00
60337;BME280;46978;50.288;28.624;2022-09-24T05:31:25;98816.98;;;7.24;100.00
60337;BME280;46978;50.288;28.624;2022-09-24T05:32:26;98826.38;;;7.30;100.00
60337;BME280;46978;50.288;28.624;2022-09-24T05:33:28;98826.35;;;7.31;99.70
60337;BME280;46978;50.288;28.624;2022-09-24T05:34:30;98827.16;;;7.35;99.96
60337;BME280;46978;50.288;28.624;2022-09-24T05:35:31;98827.95;;;7.39;100.00
60337;BME280;46978;50.288;28.624;2022-09-24T05:36:33;98822.75;;;7.42;99.78
60337;BME280;46978;50.288;28.624;2022-09-24T05:37:37;98826.20;;;7.42;99.30
60337;BME280;46978;50.288;28.624;2022-09-24T05:38:38;98833.95;;;7.42;98.57
60337;BME280;46978;50.288;28.624;2022-09-24T05:39:40;98833.03;;;7.45;99.09
60337;BME280;46978;50.288;28.624;2022-09-24T05:40:42;98825.24;;;7.48;98.99
60337;BME280;46978;50.288;28.624;2022-09-24T05:41:44;98829.55;;;7.49;98.55
60337;BME280;46978;50.288;28.624;2022-09-24T05:42:45;98830.34;;;7.52;98.49
60337;BME280;46978;50.288;28.624;2022-09-24T05:43:47;98830.36;;;7.51;98.00
60337;BME280;46978;50.288;28.624;2022-09-24T05:44:48;98823.47;;;7.53;98.26
60337;BME280;46978;50.288;28.624;2022-09-24T05:45:50;98825.16;;;7.54;98.21
60337;BME280;46978;50.288;28.624;2022-09-24T05:46:52;98825.98;;;7.58;98.36
60337;BME280;46978;50.288;28.624;2022-09-24T05:47:53;98825.92;;;7.62;98.59